sensor_id;sensor_type;location;lat;lon;timestamp;P1;durP1;ratioP1;P2;durP2;ratioP2
10845;SDS011;5476;51.540;7.186;2022-12-08T00:01:39;18.60;;;13.17;;
10845;SDS011;5476;51.540;7.186;2022-12-08T00:04:06;25.37;;;14.87;;
10845;SDS011;5476;51.540;7.186;2022-12-08T00:06:34;18.73;;;14.20;;
10845;SDS011;5476;51.540;7.186;2022-12-08T00:09:23;20.47;;;14.70;;
10845;SDS011;5476;51.540;7.186;2022-12-08T00:11:54;19.67;;;14.30;;
10845;SDS011;5476;51.540;7.186;2022-12-08T00:14:22;20.77;;;14.60;;
10845;SDS011;5476;51.540;7.186;2022-12-08T00:16:51;22.93;;;14.03;;
10845;SDS011;5476;51.540;7.186;2022-12-08T00:19:18;23.00;;;14.90;;
10845;SDS011;5476;51.540;7.186;2022-12-08T00:21:45;21.70;;;15.43;;
10845;SDS011;5476;51.540;7.186;2022-12-08T00:24:12;20.37;;;15.17;;
10845;SDS011;5476;51.540;7.186;2022-12-08T00:26:41;21.07;;;15.50;;
10845;SDS011;5476;51.540;7.186;2022-12-08T00:29:08;22.73;;;16.47;;
10845;SDS011;5476;51.540;7.186;2022-12-08T00:31:36;25.30;;;16.60;;
10845;SDS011;5476;51.540;7.186;2022-12-08T00:34:03;23.03;;;16.33;;
10845;SDS011;5476;51.540;7.186;2022-12-08T00:36:30;24.07;;;16.87;;
10845;SDS011;5476;51.540;7.186;2022-12-08T00:38:58;22.90;;;16.00;;
10845;SDS011;5476;51.540;7.186;2022-12-08T00:41:26;24.47;;;15.70;;
10845;SDS011;5476;51.540;7.186;2022-12-08T00:44:12;22.60;;;15.27;;
10845;SDS011;5476;51.540;7.186;2022-12-08T00:46:40;24.33;;;15.90;;
10845;SDS011;5476;51.540;7.186;2022-12-08T00:49:08;23.43;;;15.80;;
10845;SDS011;5476;51.540;7.186;2022-12-08T00:51:35;22.87;;;15.90;;
10845;SDS011;5476;51.540;7.186;2022-12-08T00:54:05;24.47;;;16.63;;
10845;SDS011;5476;51.540;7.186;2022-12-08T00:56:32;25.83;;;17.63;;
10845;SDS011;5476;51.540;7.186;2022-12-08T00:59:00;23.23;;;17.30;;
10845;SDS011;5476;51.540;7.186;2022-12-08T01:01:30;25.60;;;16.97;;
10845;SDS011;5476;51.540;7.186;2022-12-08T01:03:59;24.67;;;15.00;;
10845;SDS011;5476;51.540;7.186;2022-12-08T01:06:34;24.00;;;17.33;;
10845;SDS011;5476;51.540;7.186;2022-12-08T01:09:01;26.83;;;17.77;;
10845;SDS011;5476;51.540;7.186;2022-12-08T01:11:29;24.53;;;16.93;;
10845;SDS011;5476;51.540;7.186;2022-12-08T01:13:56;25.77;;;16.37;;
10845;SDS011;5476;51.540;7.186;2022-12-08T01:16:24;23.30;;;16.37;;
10845;SDS011;5476;51.540;7.186;2022-12-08T01:18:54;20.70;;;14.70;;
10845;SDS011;5476;51.540;7.186;2022-12-08T01:21:21;22.67;;;15.63;;
10845;SDS011;5476;51.540;7.186;2022-12-08T01:23:48;21.97;;;14.90;;
10845;SDS011;5476;51.540;7.186;2022-12-08T01:26:16;21.67;;;14.53;;
10845;SDS011;5476;51.540;7.186;2022-12-08T01:28:44;23.60;;;14.47;;
10845;SDS011;5476;51.540;7.186;2022-12-08T01:31:12;22.20;;;15.03;;
10845;SDS011;5476;51.540;7.186;2022-12-08T01:33:41;22.60;;;13.70;;
10845;SDS011;5476;51.540;7.186;2022-12-08T01:36:16;19.00;;;13.20;;
10845;SDS011;5476;51.540;7.186;2022-12-08T01:38:45;19.67;;;13.30;;
10845;SDS011;5476;51.540;7.186;2022-12-08T01:41:13;19.83;;;13.87;;
10845;SDS011;5476;51.540;7.186;2022-12-08T01:46:46;19.63;;;14.10;;
10845;SDS011;5476;51.540;7.186;2022-12-08T01:49:14;21.83;;;14.83;;
10845;SDS011;5476;51.540;7.186;2022-12-08T01:51:47;20.43;;;14.80;;
10845;SDS011;5476;51.540;7.186;2022-12-08T01:54:15;19.77;;;15.30;;
10845;SDS011;5476;51.540;7.186;2022-12-08T01:56:44;22.33;;;15.33;;
10845;SDS011;5476;51.540;7.186;2022-12-08T01:59:15;22.40;;;14.67;;
10845;SDS011;5476;51.540;7.186;2022-12-08T02:01:43;21.93;;;15.00;;
10845;SDS011;5476;51.540;7.186;2022-12-08T02:04:10;21.83;;;15.67;;
10845;SDS011;5476;51.540;7.186;2022-12-08T02:06:39;24.93;;;16.27;;
10845;SDS011;5476;51.540;7.186;2022-12-08T02:09:09;25.53;;;16.73;;
10845;SDS011;5476;51.540;7.186;2022-12-08T02:11:37;23.53;;;16.60;;
10845;SDS011;5476;51.540;7.186;2022-12-08T02:14:05;27.33;;;17.23;;
10845;SDS011;5476;51.540;7.186;2022-12-08T02:16:34;24.80;;;17.13;;
10845;SDS011;5476;51.540;7.186;2022-12-08T02:19:14;25.87;;;17.20;;
10845;SDS011;5476;51.540;7.186;2022-12-08T02:21:54;27.97;;;17.50;;
10845;SDS011;5476;51.540;7.186;2022-12-08T02:24:29;24.43;;;17.20;;
10845;SDS011;5476;51.540;7.186;2022-12-08T02:27:18;26.17;;;18.03;;
10845;SDS011;5476;51.540;7.186;2022-12-08T02:30:04;25.47;;;18.03;;
10845;SDS011;5476;51.540;7.186;2022-12-08T02:36:02;27.47;;;18.10;;
10845;SDS011;5476;51.540;7.186;2022-12-08T02:38:36;28.77;;;18.87;;
10845;SDS011;5476;51.540;7.186;2022-12-08T02:41:16;29.00;;;18.10;;
10845;SDS011;5476;51.540;7.186;2022-12-08T02:43:50;29.50;;;18.83;;
10845;SDS011;5476;51.540;7.186;2022-12-08T02:46:20;27.50;;;18.80;;
10845;SDS011;5476;51.540;7.186;2022-12-08T02:48:50;31.07;;;19.43;;
10845;SDS011;5476;51.540;7.186;2022-12-08T02:51:19;28.40;;;19.23;;
10845;SDS011;5476;51.540;7.186;2022-12-08T02:53:46;30.57;;;19.10;;
10845;SDS011;5476;51.540;7.186;2022-12-08T02:56:16;30.60;;;18.97;;
10845;SDS011;5476;51.540;7.186;2022-12-08T02:58:55;28.60;;;19.43;;
10845;SDS011;5476;51.540;7.186;2022-12-08T03:01:50;30.43;;;18.90;;
10845;SDS011;5476;51.540;7.186;2022-12-08T03:04:43;30.37;;;19.60;;
10845;SDS011;5476;51.540;7.186;2022-12-08T03:07:17;30.07;;;19.47;;
10845;SDS011;5476;51.540;7.186;2022-12-08T03:09:50;35.27;;;20.90;;
10845;SDS011;5476;51.540;7.186;2022-12-08T03:12:24;28.97;;;18.77;;
10845;SDS011;5476;51.540;7.186;2022-12-08T03:14:55;30.67;;;18.70;;
10845;SDS011;5476;51.540;7.186;2022-12-08T03:17:23;30.83;;;19.17;;
10845;SDS011;5476;51.540;7.186;2022-12-08T03:19:53;30.93;;;19.90;;
10845;SDS011;5476;51.540;7.186;2022-12-08T03:22:24;29.20;;;18.93;;
10845;SDS011;5476;51.540;7.186;2022-12-08T03:24:54;33.80;;;19.70;;
10845;SDS011;5476;51.540;7.186;2022-12-08T03:27:23;34.97;;;20.60;;
10845;SDS011;5476;51.540;7.186;2022-12-08T03:29:53;31.67;;;20.80;;
10845;SDS011;5476;51.540;7.186;2022-12-08T03:32:24;31.30;;;19.77;;
10845;SDS011;5476;51.540;7.186;2022-12-08T03:34:56;34.47;;;21.17;;
10845;SDS011;5476;51.540;7.186;2022-12-08T03:37:26;37.37;;;22.07;;
10845;SDS011;5476;51.540;7.186;2022-12-08T03:39:54;37.97;;;21.80;;
10845;SDS011;5476;51.540;7.186;2022-12-08T03:42:21;33.70;;;21.07;;
10845;SDS011;5476;51.540;7.186;2022-12-08T03:44:48;37.03;;;23.30;;
10845;SDS011;5476;51.540;7.186;2022-12-08T03:47:15;33.13;;;21.10;;
10845;SDS011;5476;51.540;7.186;2022-12-08T03:49:43;34.20;;;21.97;;
10845;SDS011;5476;51.540;7.186;2022-12-08T03:52:10;33.83;;;21.67;;
10845;SDS011;5476;51.540;7.186;2022-12-08T03:54:38;36.90;;;22.43;;
10845;SDS011;5476;51.540;7.186;2022-12-08T03:57:06;36.47;;;21.30;;
10845;SDS011;5476;51.540;7.186;2022-12-08T03:59:34;38.47;;;21.80;;
10845;SDS011;5476;51.540;7.186;2022-12-08T04:02:01;31.23;;;20.33;;
10845;SDS011;5476;51.540;7.186;2022-12-08T04:04:28;36.20;;;21.17;;
10845;SDS011;5476;51.540;7.186;2022-12-08T04:06:56;36.47;;;21.83;;
10845;SDS011;5476;51.540;7.186;2022-12-08T04:09:23;34.80;;;20.80;;
10845;SDS011;5476;51.540;7.186;2022-12-08T04:11:52;33.63;;;20.17;;
10845;SDS011;5476;51.540;7.186;2022-12-08T04:14:19;34.30;;;20.33;;
10845;SDS011;5476;51.540;7.186;2022-12-08T04:16:46;34.90;;;20.37;;
10845;SDS011;5476;51.540;7.186;2022-12-08T04:19:14;32.17;;;20.23;;
10845;SDS011;5476;51.540;7.186;2022-12-08T04:21:41;36.13;;;20.60;;
10845;SDS011;5476;51.540;7.186;2022-12-08T04:24:08;35.80;;;21.73;;
10845;SDS011;5476;51.540;7.186;2022-12-08T04:26:35;32.43;;;20.33;;
10845;SDS011;5476;51.540;7.186;2022-12-08T04:29:04;34.00;;;20.13;;
10845;SDS011;5476;51.540;7.186;2022-12-08T04:31:31;35.73;;;21.17;;
10845;SDS011;5476;51.540;7.186;2022-12-08T04:33:58;34.60;;;21.23;;
10845;SDS011;5476;51.540;7.186;2022-12-08T04:36:25;33.40;;;20.40;;
10845;SDS011;5476;51.540;7.186;2022-12-08T04:38:54;33.10;;;19.80;;
10845;SDS011;5476;51.540;7.186;2022-12-08T04:41:21;32.87;;;19.30;;
10845;SDS011;5476;51.540;7.186;2022-12-08T04:43:48;28.87;;;18.83;;
10845;SDS011;5476;51.540;7.186;2022-12-08T04:46:16;34.43;;;19.97;;
10845;SDS011;5476;51.540;7.186;2022-12-08T04:48:44;33.40;;;20.23;;
10845;SDS011;5476;51.540;7.186;2022-12-08T04:51:13;30.67;;;19.43;;
10845;SDS011;5476;51.540;7.186;2022-12-08T04:53:40;33.57;;;19.90;;
10845;SDS011;5476;51.540;7.186;2022-12-08T04:56:10;30.97;;;18.77;;
10845;SDS011;5476;51.540;7.186;2022-12-08T04:58:37;33.67;;;20.17;;
10845;SDS011;5476;51.540;7.186;2022-12-08T05:01:06;33.77;;;20.27;;
10845;SDS011;5476;51.540;7.186;2022-12-08T05:03:37;32.87;;;19.73;;
10845;SDS011;5476;51.540;7.186;2022-12-08T05:06:04;34.27;;;20.37;;
10845;SDS011;5476;51.540;7.186;2022-12-08T05:08:32;32.80;;;19.23;;
10845;SDS011;5476;51.540;7.186;2022-12-08T05:11:02;30.57;;;19.17;;
10845;SDS011;5476;51.540;7.186;2022-12-08T05:13:30;34.00;;;20.33;;
10845;SDS011;5476;51.540;7.186;2022-12-08T05:16:05;30.43;;;18.93;;
10845;SDS011;5476;51.540;7.186;2022-12-08T05:18:32;32.07;;;18.63;;
10845;SDS011;5476;51.540;7.186;2022-12-08T05:21:03;28.10;;;16.03;;
10845;SDS011;5476;51.540;7.186;2022-12-08T05:23:30;27.17;;;16.83;;
10845;SDS011;5476;51.540;7.186;2022-12-08T05:25:58;28.80;;;17.50;;
10845;SDS011;5476;51.540;7.186;2022-12-08T05:28:25;31.73;;;18.77;;
10845;SDS011;5476;51.540;7.186;2022-12-08T05:30:55;30.17;;;17.73;;
10845;SDS011;5476;51.540;7.186;2022-12-08T05:33:23;30.50;;;18.17;;
10845;SDS011;5476;51.540;7.186;2022-12-08T05:35:50;32.17;;;18.50;;
10845;SDS011;5476;51.540;7.186;2022-12-08T05:38:19;30.77;;;18.40;;
10845;SDS011;5476;51.540;7.186;2022-12-08T05:40:46;32.17;;;18.37;;
10845;SDS011;5476;51.540;7.186;2022-12-08T05:43:18;35.07;;;19.40;;
10845;SDS011;5476;51.540;7.186;2022-12-08T05:45:45;35.30;;;19.43;;
10845;SDS011;5476;51.540;7.186;2022-12-08T05:48:13;31.07;;;18.93;;
10845;SDS011;5476;51.540;7.186;2022-12-08T05:50:44;31.43;;;18.37;;
10845;SDS011;5476;51.540;7.186;2022-12-08T05:53:11;31.23;;;18.30;;
10845;SDS011;5476;51.540;7.186;2022-12-08T05:55:40;32.10;;;18.97;;
10845;SDS011;5476;51.540;7.186;2022-12-08T05:58:08;35.33;;;20.13;;
10845;SDS011;5476;51.540;7.186;2022-12-08T06:00:38;32.93;;;18.67;;
10845;SDS011;5476;51.540;7.186;2022-12-08T06:03:05;32.77;;;19.67;;
10845;SDS011;5476;51.540;7.186;2022-12-08T06:05:32;34.07;;;20.33;;
10845;SDS011;5476;51.540;7.186;2022-12-08T06:08:00;32.60;;;19.77;;
10845;SDS011;5476;51.540;7.186;2022-12-08T06:10:29;30.77;;;19.27;;
10845;SDS011;5476;51.540;7.186;2022-12-08T06:12:58;32.97;;;20.00;;
10845;SDS011;5476;51.540;7.186;2022-12-08T06:15:25;34.67;;;19.83;;
10845;SDS011;5476;51.540;7.186;2022-12-08T06:17:52;30.80;;;19.13;;
10845;SDS011;5476;51.540;7.186;2022-12-08T06:20:19;33.23;;;20.17;;
10845;SDS011;5476;51.540;7.186;2022-12-08T06:22:46;35.23;;;20.90;;
10845;SDS011;5476;51.540;7.186;2022-12-08T06:25:14;34.40;;;19.57;;
10845;SDS011;5476;51.540;7.186;2022-12-08T06:27:41;33.67;;;20.23;;
10845;SDS011;5476;51.540;7.186;2022-12-08T06:30:09;34.10;;;20.27;;
10845;SDS011;5476;51.540;7.186;2022-12-08T06:32:37;28.17;;;18.23;;
10845;SDS011;5476;51.540;7.186;2022-12-08T06:35:04;27.30;;;17.57;;
10845;SDS011;5476;51.540;7.186;2022-12-08T06:37:32;23.00;;;14.07;;
10845;SDS011;5476;51.540;7.186;2022-12-08T06:39:59;18.37;;;12.43;;
10845;SDS011;5476;51.540;7.186;2022-12-08T06:42:26;15.63;;;10.93;;
10845;SDS011;5476;51.540;7.186;2022-12-08T06:45:13;17.97;;;10.83;;
10845;SDS011;5476;51.540;7.186;2022-12-08T06:47:41;17.77;;;11.80;;
10845;SDS011;5476;51.540;7.186;2022-12-08T06:50:09;20.17;;;13.13;;
10845;SDS011;5476;51.540;7.186;2022-12-08T06:52:36;19.00;;;12.37;;
10845;SDS011;5476;51.540;7.186;2022-12-08T06:55:05;20.27;;;13.33;;
10845;SDS011;5476;51.540;7.186;2022-12-08T06:57:32;19.17;;;14.00;;
10845;SDS011;5476;51.540;7.186;2022-12-08T06:59:59;23.30;;;15.13;;
10845;SDS011;5476;51.540;7.186;2022-12-08T07:02:28;24.73;;;15.03;;
10845;SDS011;5476;51.540;7.186;2022-12-08T07:04:55;25.17;;;16.80;;
10845;SDS011;5476;51.540;7.186;2022-12-08T07:07:22;28.07;;;17.77;;
10845;SDS011;5476;51.540;7.186;2022-12-08T07:09:49;26.57;;;15.67;;
10845;SDS011;5476;51.540;7.186;2022-12-08T07:12:16;26.17;;;16.10;;
10845;SDS011;5476;51.540;7.186;2022-12-08T07:14:44;27.30;;;17.30;;
10845;SDS011;5476;51.540;7.186;2022-12-08T07:17:11;28.87;;;16.70;;
10845;SDS011;5476;51.540;7.186;2022-12-08T07:19:39;27.23;;;16.47;;
10845;SDS011;5476;51.540;7.186;2022-12-08T07:22:06;28.43;;;17.57;;
10845;SDS011;5476;51.540;7.186;2022-12-08T07:24:34;27.73;;;16.27;;
10845;SDS011;5476;51.540;7.186;2022-12-08T07:27:02;26.53;;;15.53;;
10845;SDS011;5476;51.540;7.186;2022-12-08T07:29:30;23.30;;;15.03;;
10845;SDS011;5476;51.540;7.186;2022-12-08T07:31:57;27.63;;;16.07;;
10845;SDS011;5476;51.540;7.186;2022-12-08T07:34:24;26.47;;;15.63;;
10845;SDS011;5476;51.540;7.186;2022-12-08T07:36:56;26.70;;;15.33;;
10845;SDS011;5476;51.540;7.186;2022-12-08T07:39:23;22.40;;;13.33;;
10845;SDS011;5476;51.540;7.186;2022-12-08T07:41:51;25.60;;;14.87;;
10845;SDS011;5476;51.540;7.186;2022-12-08T07:44:18;27.00;;;14.40;;
10845;SDS011;5476;51.540;7.186;2022-12-08T07:46:48;24.67;;;14.33;;
10845;SDS011;5476;51.540;7.186;2022-12-08T07:49:15;24.40;;;14.97;;
10845;SDS011;5476;51.540;7.186;2022-12-08T07:51:43;26.43;;;15.87;;
10845;SDS011;5476;51.540;7.186;2022-12-08T07:54:11;27.00;;;16.20;;
10845;SDS011;5476;51.540;7.186;2022-12-08T07:56:39;26.27;;;15.53;;
10845;SDS011;5476;51.540;7.186;2022-12-08T07:59:06;27.93;;;16.10;;
10845;SDS011;5476;51.540;7.186;2022-12-08T08:01:33;25.30;;;14.83;;
10845;SDS011;5476;51.540;7.186;2022-12-08T08:04:01;24.77;;;15.17;;
10845;SDS011;5476;51.540;7.186;2022-12-08T08:06:30;25.50;;;15.63;;
10845;SDS011;5476;51.540;7.186;2022-12-08T08:08:57;28.17;;;17.07;;
10845;SDS011;5476;51.540;7.186;2022-12-08T08:11:25;26.60;;;16.00;;
10845;SDS011;5476;51.540;7.186;2022-12-08T08:13:53;26.83;;;16.30;;
10845;SDS011;5476;51.540;7.186;2022-12-08T08:16:20;27.43;;;17.00;;
10845;SDS011;5476;51.540;7.186;2022-12-08T08:18:47;30.63;;;18.50;;
10845;SDS011;5476;51.540;7.186;2022-12-08T08:21:15;31.27;;;18.83;;
10845;SDS011;5476;51.540;7.186;2022-12-08T08:23:42;29.27;;;19.30;;
10845;SDS011;5476;51.540;7.186;2022-12-08T08:26:12;30.83;;;17.93;;
10845;SDS011;5476;51.540;7.186;2022-12-08T08:28:40;30.40;;;17.80;;
10845;SDS011;5476;51.540;7.186;2022-12-08T08:31:09;27.43;;;16.50;;
10845;SDS011;5476;51.540;7.186;2022-12-08T08:33:37;27.83;;;16.20;;
10845;SDS011;5476;51.540;7.186;2022-12-08T08:36:05;32.80;;;18.90;;
10845;SDS011;5476;51.540;7.186;2022-12-08T08:38:34;31.33;;;18.43;;
10845;SDS011;5476;51.540;7.186;2022-12-08T08:41:06;30.60;;;17.70;;
10845;SDS011;5476;51.540;7.186;2022-12-08T08:43:33;24.27;;;15.30;;
10845;SDS011;5476;51.540;7.186;2022-12-08T08:46:03;23.53;;;14.23;;
10845;SDS011;5476;51.540;7.186;2022-12-08T08:48:30;17.07;;;11.90;;
10845;SDS011;5476;51.540;7.186;2022-12-08T08:51:05;20.37;;;12.10;;
10845;SDS011;5476;51.540;7.186;2022-12-08T08:53:32;18.37;;;10.47;;
10845;SDS011;5476;51.540;7.186;2022-12-08T08:56:00;18.80;;;12.07;;
10845;SDS011;5476;51.540;7.186;2022-12-08T08:58:29;18.40;;;10.87;;
10845;SDS011;5476;51.540;7.186;2022-12-08T09:04:11;18.40;;;10.87;;
10845;SDS011;5476;51.540;7.186;2022-12-08T09:06:38;15.47;;;10.93;;
10845;SDS011;5476;51.540;7.186;2022-12-08T09:09:07;20.47;;;11.17;;
10845;SDS011;5476;51.540;7.186;2022-12-08T09:11:37;20.47;;;11.87;;
10845;SDS011;5476;51.540;7.186;2022-12-08T09:14:06;18.07;;;12.00;;
10845;SDS011;5476;51.540;7.186;2022-12-08T09:16:35;16.47;;;11.13;;
10845;SDS011;5476;51.540;7.186;2022-12-08T09:19:03;19.53;;;11.50;;
10845;SDS011;5476;51.540;7.186;2022-12-08T09:21:33;18.40;;;10.83;;
10845;SDS011;5476;51.540;7.186;2022-12-08T09:41:02;15.40;;;9.90;;
10845;SDS011;5476;51.540;7.186;2022-12-08T09:43:41;14.17;;;9.50;;
10845;SDS011;5476;51.540;7.186;2022-12-08T09:46:12;19.33;;;12.13;;
10845;SDS011;5476;51.540;7.186;2022-12-08T09:48:42;14.90;;;10.60;;
10845;SDS011;5476;51.540;7.186;2022-12-08T09:51:11;16.77;;;11.20;;
10845;SDS011;5476;51.540;7.186;2022-12-08T09:53:41;16.77;;;11.87;;
10845;SDS011;5476;51.540;7.186;2022-12-08T09:56:12;19.23;;;11.73;;
10845;SDS011;5476;51.540;7.186;2022-12-08T09:58:43;17.67;;;11.27;;
10845;SDS011;5476;51.540;7.186;2022-12-08T10:01:12;22.17;;;12.47;;
10845;SDS011;5476;51.540;7.186;2022-12-08T10:03:39;18.63;;;12.63;;
10845;SDS011;5476;51.540;7.186;2022-12-08T10:06:09;24.77;;;14.03;;
10845;SDS011;5476;51.540;7.186;2022-12-08T10:08:45;20.70;;;13.63;;
10845;SDS011;5476;51.540;7.186;2022-12-08T10:11:56;22.53;;;14.00;;
10845;SDS011;5476;51.540;7.186;2022-12-08T10:14:26;19.43;;;12.77;;
10845;SDS011;5476;51.540;7.186;2022-12-08T10:16:57;21.67;;;14.27;;
10845;SDS011;5476;51.540;7.186;2022-12-08T10:19:27;22.97;;;15.03;;
10845;SDS011;5476;51.540;7.186;2022-12-08T10:21:55;23.27;;;14.57;;
10845;SDS011;5476;51.540;7.186;2022-12-08T10:24:24;24.70;;;15.27;;
10845;SDS011;5476;51.540;7.186;2022-12-08T10:26:54;22.97;;;15.57;;
10845;SDS011;5476;51.540;7.186;2022-12-08T10:29:22;23.57;;;16.10;;
10845;SDS011;5476;51.540;7.186;2022-12-08T10:31:49;27.77;;;16.73;;
10845;SDS011;5476;51.540;7.186;2022-12-08T10:34:19;26.97;;;16.87;;
10845;SDS011;5476;51.540;7.186;2022-12-08T10:36:48;26.10;;;17.77;;
10845;SDS011;5476;51.540;7.186;2022-12-08T10:39:29;28.60;;;19.03;;
10845;SDS011;5476;51.540;7.186;2022-12-08T10:42:00;27.00;;;16.93;;
10845;SDS011;5476;51.540;7.186;2022-12-08T10:44:28;27.80;;;17.50;;
10845;SDS011;5476;51.540;7.186;2022-12-08T10:46:55;24.90;;;15.80;;
10845;SDS011;5476;51.540;7.186;2022-12-08T10:49:27;26.40;;;16.33;;
10845;SDS011;5476;51.540;7.186;2022-12-08T10:51:57;24.20;;;16.03;;
10845;SDS011;5476;51.540;7.186;2022-12-08T10:54:25;22.57;;;14.37;;
10845;SDS011;5476;51.540;7.186;2022-12-08T10:56:54;23.07;;;15.37;;
10845;SDS011;5476;51.540;7.186;2022-12-08T10:59:26;22.27;;;14.07;;
10845;SDS011;5476;51.540;7.186;2022-12-08T11:04:59;21.30;;;14.53;;
10845;SDS011;5476;51.540;7.186;2022-12-08T11:07:27;23.83;;;15.17;;
10845;SDS011;5476;51.540;7.186;2022-12-08T11:09:56;20.67;;;13.93;;
10845;SDS011;5476;51.540;7.186;2022-12-08T11:12:25;20.93;;;14.50;;
10845;SDS011;5476;51.540;7.186;2022-12-08T11:14:57;22.77;;;14.27;;
10845;SDS011;5476;51.540;7.186;2022-12-08T11:17:27;20.93;;;14.67;;
10845;SDS011;5476;51.540;7.186;2022-12-08T11:19:57;24.33;;;15.33;;
10845;SDS011;5476;51.540;7.186;2022-12-08T11:22:25;21.17;;;13.50;;
10845;SDS011;5476;51.540;7.186;2022-12-08T11:24:58;24.43;;;15.03;;
10845;SDS011;5476;51.540;7.186;2022-12-08T11:27:27;24.47;;;15.33;;
10845;SDS011;5476;51.540;7.186;2022-12-08T11:29:56;23.80;;;16.00;;
10845;SDS011;5476;51.540;7.186;2022-12-08T11:32:24;20.97;;;14.20;;
10845;SDS011;5476;51.540;7.186;2022-12-08T11:34:52;23.33;;;15.63;;
10845;SDS011;5476;51.540;7.186;2022-12-08T11:37:22;26.67;;;17.40;;
10845;SDS011;5476;51.540;7.186;2022-12-08T11:39:52;28.83;;;18.30;;
10845;SDS011;5476;51.540;7.186;2022-12-08T11:42:22;25.83;;;17.43;;
10845;SDS011;5476;51.540;7.186;2022-12-08T11:44:52;24.20;;;17.93;;
10845;SDS011;5476;51.540;7.186;2022-12-08T11:47:24;24.67;;;16.63;;
10845;SDS011;5476;51.540;7.186;2022-12-08T11:49:53;25.17;;;16.90;;
10845;SDS011;5476;51.540;7.186;2022-12-08T11:52:23;26.30;;;16.90;;
10845;SDS011;5476;51.540;7.186;2022-12-08T11:54:55;27.40;;;18.00;;
10845;SDS011;5476;51.540;7.186;2022-12-08T11:57:25;27.80;;;17.83;;
10845;SDS011;5476;51.540;7.186;2022-12-08T11:59:57;27.53;;;17.60;;
10845;SDS011;5476;51.540;7.186;2022-12-08T12:02:39;24.00;;;17.13;;
10845;SDS011;5476;51.540;7.186;2022-12-08T12:05:20;25.30;;;17.17;;
10845;SDS011;5476;51.540;7.186;2022-12-08T12:10:53;23.17;;;15.30;;
10845;SDS011;5476;51.540;7.186;2022-12-08T12:13:31;25.37;;;16.40;;
10845;SDS011;5476;51.540;7.186;2022-12-08T12:19:07;22.27;;;15.90;;
10845;SDS011;5476;51.540;7.186;2022-12-08T12:21:50;20.77;;;14.63;;
10845;SDS011;5476;51.540;7.186;2022-12-08T12:24:23;22.47;;;15.60;;
10845;SDS011;5476;51.540;7.186;2022-12-08T12:26:53;20.23;;;14.77;;
10845;SDS011;5476;51.540;7.186;2022-12-08T12:29:24;22.63;;;15.93;;
10845;SDS011;5476;51.540;7.186;2022-12-08T12:31:56;19.77;;;14.00;;
10845;SDS011;5476;51.540;7.186;2022-12-08T12:34:26;19.87;;;14.13;;
10845;SDS011;5476;51.540;7.186;2022-12-08T12:36:56;19.67;;;14.37;;
10845;SDS011;5476;51.540;7.186;2022-12-08T12:39:25;19.77;;;14.70;;
10845;SDS011;5476;51.540;7.186;2022-12-08T12:41:54;21.70;;;15.00;;
10845;SDS011;5476;51.540;7.186;2022-12-08T12:44:41;22.33;;;15.53;;
10845;SDS011;5476;51.540;7.186;2022-12-08T12:47:12;19.70;;;14.90;;
10845;SDS011;5476;51.540;7.186;2022-12-08T12:49:51;22.93;;;15.90;;
10845;SDS011;5476;51.540;7.186;2022-12-08T12:52:35;21.73;;;15.47;;
10845;SDS011;5476;51.540;7.186;2022-12-08T12:57:49;22.70;;;16.63;;
10845;SDS011;5476;51.540;7.186;2022-12-08T13:00:17;22.73;;;16.60;;
10845;SDS011;5476;51.540;7.186;2022-12-08T13:02:47;22.87;;;17.03;;
10845;SDS011;5476;51.540;7.186;2022-12-08T13:05:17;23.50;;;16.80;;
10845;SDS011;5476;51.540;7.186;2022-12-08T13:07:49;23.67;;;16.33;;
10845;SDS011;5476;51.540;7.186;2022-12-08T13:10:19;26.10;;;18.73;;
10845;SDS011;5476;51.540;7.186;2022-12-08T13:13:00;26.20;;;18.17;;
10845;SDS011;5476;51.540;7.186;2022-12-08T13:15:31;26.17;;;17.80;;
10845;SDS011;5476;51.540;7.186;2022-12-08T13:18:01;27.23;;;18.03;;
10845;SDS011;5476;51.540;7.186;2022-12-08T13:20:29;27.27;;;18.27;;
10845;SDS011;5476;51.540;7.186;2022-12-08T13:23:01;28.83;;;19.00;;
10845;SDS011;5476;51.540;7.186;2022-12-08T13:25:51;29.60;;;18.47;;
10845;SDS011;5476;51.540;7.186;2022-12-08T13:28:23;30.87;;;18.80;;
10845;SDS011;5476;51.540;7.186;2022-12-08T13:30:52;27.17;;;18.00;;
10845;SDS011;5476;51.540;7.186;2022-12-08T13:33:26;29.37;;;18.27;;
10845;SDS011;5476;51.540;7.186;2022-12-08T13:36:08;27.30;;;18.70;;
10845;SDS011;5476;51.540;7.186;2022-12-08T13:38:37;28.07;;;18.23;;
10845;SDS011;5476;51.540;7.186;2022-12-08T13:41:16;31.63;;;17.93;;
10845;SDS011;5476;51.540;7.186;2022-12-08T13:43:53;28.87;;;18.00;;
10845;SDS011;5476;51.540;7.186;2022-12-08T13:46:31;26.97;;;17.00;;
10845;SDS011;5476;51.540;7.186;2022-12-08T13:57:02;25.90;;;16.53;;
10845;SDS011;5476;51.540;7.186;2022-12-08T13:59:32;24.93;;;15.17;;
10845;SDS011;5476;51.540;7.186;2022-12-08T14:05:17;19.73;;;12.73;;
10845;SDS011;5476;51.540;7.186;2022-12-08T16:10:23;24.70;;;16.20;;
10845;SDS011;5476;51.540;7.186;2022-12-08T16:12:51;22.33;;;16.23;;
10845;SDS011;5476;51.540;7.186;2022-12-08T16:15:37;26.17;;;16.50;;
10845;SDS011;5476;51.540;7.186;2022-12-08T16:18:05;26.10;;;16.87;;
10845;SDS011;5476;51.540;7.186;2022-12-08T16:20:32;24.50;;;16.80;;
10845;SDS011;5476;51.540;7.186;2022-12-08T16:23:00;23.63;;;16.73;;
10845;SDS011;5476;51.540;7.186;2022-12-08T16:25:28;28.93;;;18.00;;
10845;SDS011;5476;51.540;7.186;2022-12-08T16:27:55;28.53;;;18.57;;
10845;SDS011;5476;51.540;7.186;2022-12-08T16:30:23;28.43;;;16.77;;
10845;SDS011;5476;51.540;7.186;2022-12-08T16:32:50;28.27;;;18.13;;
10845;SDS011;5476;51.540;7.186;2022-12-08T16:35:17;25.63;;;17.47;;
10845;SDS011;5476;51.540;7.186;2022-12-08T16:37:44;25.77;;;17.57;;
10845;SDS011;5476;51.540;7.186;2022-12-08T16:40:11;27.23;;;17.73;;
10845;SDS011;5476;51.540;7.186;2022-12-08T16:42:40;28.33;;;18.50;;
10845;SDS011;5476;51.540;7.186;2022-12-08T16:45:12;26.17;;;18.47;;
10845;SDS011;5476;51.540;7.186;2022-12-08T16:47:42;26.97;;;17.50;;
10845;SDS011;5476;51.540;7.186;2022-12-08T16:50:10;24.10;;;17.37;;
10845;SDS011;5476;51.540;7.186;2022-12-08T16:52:39;28.57;;;18.17;;
10845;SDS011;5476;51.540;7.186;2022-12-08T16:55:06;25.27;;;18.00;;
10845;SDS011;5476;51.540;7.186;2022-12-08T16:57:34;29.10;;;18.73;;
10845;SDS011;5476;51.540;7.186;2022-12-08T17:00:03;29.20;;;19.00;;
10845;SDS011;5476;51.540;7.186;2022-12-08T17:02:31;26.97;;;18.83;;
10845;SDS011;5476;51.540;7.186;2022-12-08T17:04:59;29.50;;;18.60;;
10845;SDS011;5476;51.540;7.186;2022-12-08T17:07:25;28.00;;;18.87;;
10845;SDS011;5476;51.540;7.186;2022-12-08T17:09:53;28.00;;;19.30;;
10845;SDS011;5476;51.540;7.186;2022-12-08T17:12:20;25.43;;;17.57;;
10845;SDS011;5476;51.540;7.186;2022-12-08T17:14:47;29.37;;;18.30;;
10845;SDS011;5476;51.540;7.186;2022-12-08T17:17:15;29.97;;;18.70;;
10845;SDS011;5476;51.540;7.186;2022-12-08T17:19:43;28.73;;;18.30;;
10845;SDS011;5476;51.540;7.186;2022-12-08T17:22:10;30.27;;;18.70;;
10845;SDS011;5476;51.540;7.186;2022-12-08T17:24:37;28.37;;;18.20;;
10845;SDS011;5476;51.540;7.186;2022-12-08T17:27:04;27.33;;;18.10;;
10845;SDS011;5476;51.540;7.186;2022-12-08T17:29:31;28.20;;;18.80;;
10845;SDS011;5476;51.540;7.186;2022-12-08T17:31:58;27.87;;;17.83;;
10845;SDS011;5476;51.540;7.186;2022-12-08T17:34:27;28.67;;;18.97;;
10845;SDS011;5476;51.540;7.186;2022-12-08T17:36:54;28.20;;;17.90;;
10845;SDS011;5476;51.540;7.186;2022-12-08T17:39:21;28.80;;;17.40;;
10845;SDS011;5476;51.540;7.186;2022-12-08T17:41:49;26.80;;;18.30;;
10845;SDS011;5476;51.540;7.186;2022-12-08T17:44:19;26.87;;;17.53;;